Humnoke, Arkansas
Current Conditions -  °F | °C
As of 3:35 PM on Saturday 25 Oct 2014 (Local Time) from KSGT Reporting Station
Clear Clear  
Wind Chill: 84°   Ceiling: Unl
Heat Index: 85°   Visibility: 10mi
Dew Point: 63°   Wind: 6mph
Humidity: 48%   Direction: 240°WSW
Pressure: 30.04"   Gusts: NA
Location:  34.54°N, 91.76°W
Report Text: KSGT 252035Z AUTO 24005KT 10SM CLR 29/17 A3004 RMK AO1
Loading
Personal Weather Stations






























Interactive Weather Map
Tropical Storm Tracking
New forecast layout! Learn more

10-Day Weather Forecast

Advertisements
Track Severe Weather on mobile